createdAt,value
2023-06-04T00:01:16.285Z,17.12
2023-06-04T00:03:44.550Z,17.16
2023-06-04T00:06:11.210Z,17.13
2023-06-04T00:08:37.857Z,17.12
2023-06-04T00:11:04.573Z,17.09
2023-06-04T00:13:56.495Z,17.08
2023-06-04T00:16:23.063Z,17.08
2023-06-04T00:18:49.741Z,17.03
2023-06-04T00:21:16.555Z,17.09
2023-06-04T00:23:43.850Z,16.97
2023-06-04T00:26:10.677Z,16.93
2023-06-04T00:28:37.247Z,16.98
2023-06-04T00:31:07.105Z,16.95
2023-06-04T00:33:33.839Z,16.94
2023-06-04T00:36:00.639Z,16.95
2023-06-04T00:38:28.237Z,16.95
2023-06-04T00:40:54.758Z,16.91
2023-06-04T00:43:21.446Z,16.87
2023-06-04T00:45:48.054Z,16.87
2023-06-04T00:48:14.637Z,16.86
2023-06-04T00:50:41.179Z,16.81
2023-06-04T00:53:08.222Z,16.84
2023-06-04T00:55:35.389Z,16.78
2023-06-04T00:58:02.224Z,16.75
2023-06-04T01:00:28.809Z,16.75
2023-06-04T01:02:59.734Z,16.73
2023-06-04T01:05:48.991Z,16.68
2023-06-04T01:08:16.358Z,16.65
2023-06-04T01:10:53.509Z,16.69
2023-06-04T01:13:20.070Z,16.63
2023-06-04T01:15:46.658Z,16.62
2023-06-04T01:18:28.789Z,16.58
2023-06-04T01:21:19.407Z,16.64
2023-06-04T01:23:59.560Z,16.58
2023-06-04T01:26:28.488Z,16.63
2023-06-04T01:28:57.427Z,16.57
2023-06-04T01:31:25.518Z,16.55
2023-06-04T01:33:59.892Z,16.58
2023-06-04T01:36:26.713Z,16.56
2023-06-04T01:38:53.414Z,16.56
2023-06-04T01:41:20.030Z,16.51
2023-06-04T01:43:46.903Z,16.45
2023-06-04T01:46:13.837Z,16.42
2023-06-04T01:48:41.857Z,16.42
2023-06-04T01:51:08.680Z,16.48
2023-06-04T01:53:36.033Z,16.41
2023-06-04T01:56:02.872Z,16.44
2023-06-04T01:58:30.257Z,16.37
2023-06-04T02:01:17.997Z,16.23
2023-06-04T02:04:04.906Z,16.28
2023-06-04T02:06:51.764Z,16.19
2023-06-04T02:09:38.594Z,16.20
2023-06-04T02:12:25.280Z,16.04
2023-06-04T02:15:12.036Z,15.93
2023-06-04T02:17:43.836Z,16.01
2023-06-04T02:20:12.326Z,16.06
2023-06-04T02:22:39.091Z,16.13
2023-06-04T02:25:06.521Z,15.95
2023-06-04T02:27:33.049Z,15.77
2023-06-04T02:29:59.732Z,15.75
2023-06-04T02:32:26.317Z,15.90
2023-06-04T02:34:53.012Z,15.81
2023-06-04T02:37:19.726Z,15.74
2023-06-04T02:39:46.337Z,15.77
2023-06-04T02:42:13.435Z,15.77
2023-06-04T02:44:40.075Z,15.70
2023-06-04T02:47:07.208Z,15.70
2023-06-04T02:49:33.814Z,15.70
2023-06-04T02:52:00.470Z,15.74
2023-06-04T02:54:27.334Z,15.66
2023-06-04T02:56:54.516Z,15.65
2023-06-04T02:59:21.111Z,15.57
2023-06-04T03:01:49.487Z,15.58
2023-06-04T03:04:16.727Z,15.55
2023-06-04T03:06:47.265Z,15.53
2023-06-04T03:09:14.318Z,15.43
2023-06-04T03:11:40.883Z,15.42
2023-06-04T03:14:08.837Z,15.29
2023-06-04T03:16:35.304Z,15.37
2023-06-04T03:19:02.456Z,15.44
2023-06-04T03:21:30.115Z,15.38
2023-06-04T03:23:57.594Z,15.32
2023-06-04T03:26:24.286Z,15.31
2023-06-04T03:28:51.317Z,15.27
2023-06-04T03:31:20.158Z,15.21
2023-06-04T03:33:46.968Z,15.22
2023-06-04T03:36:14.505Z,15.21
2023-06-04T03:38:41.110Z,15.35
2023-06-04T03:41:08.704Z,15.38
2023-06-04T03:43:36.655Z,15.39
2023-06-04T03:46:06.441Z,15.31
2023-06-04T03:48:33.121Z,15.35
2023-06-04T03:50:59.810Z,15.36
2023-06-04T03:53:26.797Z,15.27
2023-06-04T03:55:53.572Z,15.35
2023-06-04T03:58:22.488Z,15.24
2023-06-04T04:00:50.852Z,15.23
2023-06-04T04:03:17.402Z,15.34
2023-06-04T04:05:45.135Z,15.34
2023-06-04T04:08:13.077Z,15.31
2023-06-04T04:10:39.878Z,15.36
2023-06-04T04:13:06.503Z,15.30
2023-06-04T04:15:36.556Z,15.42
2023-06-04T04:18:04.901Z,15.33
2023-06-04T04:20:32.718Z,15.36
2023-06-04T04:23:04.278Z,15.43
2023-06-04T04:25:33.633Z,15.40
2023-06-04T04:28:03.216Z,15.33
2023-06-04T04:30:30.345Z,15.41
2023-06-04T04:32:57.605Z,15.41
2023-06-04T04:35:33.568Z,15.33
2023-06-04T04:38:00.165Z,15.32
2023-06-04T04:40:26.861Z,15.39
2023-06-04T04:42:55.481Z,15.41
2023-06-04T04:45:22.379Z,15.15
2023-06-04T04:47:53.114Z,15.22
2023-06-04T04:50:20.507Z,15.13
2023-06-04T04:52:47.064Z,15.26
2023-06-04T04:55:14.038Z,15.16
2023-06-04T04:57:41.265Z,15.32
2023-06-04T05:00:10.296Z,15.32
2023-06-04T05:02:39.245Z,15.34
2023-06-04T05:05:07.698Z,15.32
2023-06-04T05:07:34.344Z,15.41
2023-06-04T05:10:01.303Z,15.29
2023-06-04T05:12:33.105Z,15.47
2023-06-04T05:15:01.955Z,15.44
2023-06-04T05:17:31.274Z,15.55
2023-06-04T05:20:05.427Z,15.68
2023-06-04T05:22:37.273Z,15.69
2023-06-04T05:25:04.834Z,15.76
2023-06-04T05:27:32.629Z,15.62
2023-06-04T05:29:59.681Z,15.70
2023-06-04T05:32:29.536Z,15.79
2023-06-04T05:34:58.576Z,15.72
2023-06-04T05:37:28.279Z,15.77
2023-06-04T05:39:56.668Z,15.73
2023-06-04T05:42:24.871Z,15.91
2023-06-04T05:44:51.591Z,15.93
2023-06-04T05:47:19.910Z,16.05
2023-06-04T05:49:47.032Z,16.05
2023-06-04T05:52:13.895Z,16.12
2023-06-04T05:54:42.118Z,16.08
2023-06-04T05:57:08.820Z,16.22
2023-06-04T05:59:35.708Z,16.28
2023-06-04T06:02:04.879Z,16.13
2023-06-04T06:04:32.090Z,16.29
2023-06-04T06:06:58.986Z,16.44
2023-06-04T06:09:25.614Z,16.21
2023-06-04T06:11:52.465Z,16.23
2023-06-04T06:14:19.086Z,16.56
2023-06-04T06:16:46.318Z,16.65
2023-06-04T06:19:13.476Z,16.53
2023-06-04T06:21:40.150Z,16.60
2023-06-04T06:24:06.908Z,16.75
2023-06-04T06:26:34.297Z,16.83
2023-06-04T06:29:02.647Z,16.97
2023-06-04T06:31:30.380Z,16.79
2023-06-04T06:33:56.895Z,16.81
2023-06-04T06:36:23.518Z,16.95
2023-06-04T06:38:50.105Z,17.08
2023-06-04T06:41:16.712Z,17.44
2023-06-04T06:43:43.295Z,17.60
2023-06-04T06:46:09.761Z,17.66
2023-06-04T06:48:37.162Z,17.74
2023-06-04T06:51:03.865Z,17.69
2023-06-04T06:53:30.523Z,17.71
2023-06-04T06:55:57.335Z,17.95
2023-06-04T06:58:24.427Z,17.88
2023-06-04T07:00:51.344Z,18.24
2023-06-04T07:03:18.188Z,18.30
2023-06-04T07:05:44.896Z,18.27
2023-06-04T07:08:11.453Z,18.64
2023-06-04T07:10:38.110Z,18.62
2023-06-04T07:13:04.789Z,18.77
2023-06-04T07:15:31.355Z,18.77
2023-06-04T07:17:58.141Z,18.88
2023-06-04T07:20:24.740Z,19.18
2023-06-04T07:22:51.381Z,19.43
2023-06-04T07:25:17.932Z,19.55
2023-06-04T07:27:44.561Z,19.49
2023-06-04T07:30:11.275Z,19.64
2023-06-04T07:32:37.820Z,19.64
2023-06-04T07:35:04.701Z,19.74
2023-06-04T07:37:31.561Z,20.05
2023-06-04T07:39:58.385Z,20.23
2023-06-04T07:42:24.994Z,20.42
2023-06-04T07:44:51.640Z,20.71
2023-06-04T07:47:18.182Z,20.88
2023-06-04T07:49:58.105Z,20.88
2023-06-04T07:52:28.260Z,21.25
2023-06-04T07:54:54.864Z,21.52
2023-06-04T07:57:21.376Z,21.67
2023-06-04T07:59:47.981Z,21.62
2023-06-04T08:02:16.045Z,21.76
2023-06-04T08:04:42.823Z,22.14
2023-06-04T08:07:09.599Z,22.21
2023-06-04T08:09:36.194Z,22.26
2023-06-04T08:12:02.920Z,22.43
2023-06-04T08:14:29.481Z,22.75
2023-06-04T08:16:56.034Z,22.72
2023-06-04T08:19:22.676Z,23.00
2023-06-04T08:21:49.370Z,23.06
2023-06-04T08:24:16.392Z,23.18
2023-06-04T08:26:42.870Z,23.25
2023-06-04T08:29:09.730Z,23.38
2023-06-04T08:31:36.382Z,23.34
2023-06-04T08:34:06.337Z,23.39
2023-06-04T08:36:33.820Z,23.66
2023-06-04T08:39:00.421Z,23.71
2023-06-04T08:41:38.167Z,23.82
2023-06-04T08:44:07.278Z,23.84
2023-06-04T08:46:34.081Z,23.74
2023-06-04T08:49:03.540Z,24.11
2023-06-04T08:51:34.815Z,24.24
2023-06-04T08:54:01.485Z,24.46
2023-06-04T08:56:29.823Z,24.64
2023-06-04T08:59:02.723Z,24.63
2023-06-04T09:01:30.814Z,24.74
2023-06-04T09:03:59.269Z,24.31
2023-06-04T09:06:29.336Z,24.67
2023-06-04T09:08:59.798Z,24.66
2023-06-04T09:11:29.188Z,24.96
2023-06-04T09:14:00.544Z,24.94
2023-06-04T09:16:27.113Z,25.10
2023-06-04T09:18:54.464Z,25.17
2023-06-04T09:21:21.143Z,25.39
2023-06-04T09:23:48.446Z,25.83
2023-06-04T09:26:15.321Z,25.95
2023-06-04T09:28:43.104Z,26.08
2023-06-04T09:31:19.142Z,26.03
2023-06-04T09:33:46.851Z,26.35
2023-06-04T09:36:13.827Z,26.31
2023-06-04T09:38:40.837Z,26.45
2023-06-04T09:41:14.930Z,26.05
2023-06-04T09:43:41.817Z,26.18
2023-06-04T09:46:16.177Z,25.92
2023-06-04T09:48:45.387Z,25.85
2023-06-04T09:51:16.266Z,25.90
2023-06-04T09:53:43.063Z,25.89
2023-06-04T09:56:12.042Z,26.21
2023-06-04T09:58:39.699Z,26.00
2023-06-04T10:01:07.383Z,26.41
2023-06-04T10:03:36.972Z,27.07
2023-06-04T10:06:05.530Z,27.01
2023-06-04T10:08:33.787Z,27.26
2023-06-04T10:11:02.601Z,27.43
2023-06-04T10:13:39.874Z,27.51
2023-06-04T10:16:09.572Z,27.92
2023-06-04T10:18:40.624Z,28.27
2023-06-04T10:21:09.154Z,28.40
2023-06-04T10:23:36.859Z,28.07
2023-06-04T10:26:03.539Z,27.38
2023-06-04T10:28:30.619Z,27.88
2023-06-04T10:30:57.235Z,27.61
2023-06-04T10:33:27.420Z,27.89
2023-06-04T10:35:54.733Z,27.67
2023-06-04T10:38:23.280Z,27.28
2023-06-04T10:40:50.495Z,26.79
2023-06-04T10:43:17.276Z,26.70
2023-06-04T10:45:44.254Z,27.41
2023-06-04T10:48:13.057Z,27.17
2023-06-04T10:50:53.706Z,27.44
2023-06-04T10:53:21.182Z,27.10
2023-06-04T10:55:49.582Z,27.45
2023-06-04T10:58:17.026Z,27.89
2023-06-04T11:00:50.260Z,27.75
2023-06-04T11:03:18.079Z,27.83
2023-06-04T11:05:48.708Z,28.10
2023-06-04T11:08:16.045Z,28.54
2023-06-04T11:10:46.388Z,28.29
2023-06-04T11:13:13.639Z,28.48
2023-06-04T11:15:49.835Z,28.91
2023-06-04T11:18:21.152Z,29.47
2023-06-04T11:20:50.967Z,29.77
2023-06-04T11:23:18.587Z,29.52
2023-06-04T11:25:46.361Z,30.04
2023-06-04T11:28:19.177Z,30.03
2023-06-04T11:31:03.263Z,29.91
2023-06-04T11:33:31.099Z,29.97
2023-06-04T11:35:57.740Z,29.08
2023-06-04T11:38:24.352Z,29.51
2023-06-04T11:41:01.610Z,30.28
2023-06-04T11:43:29.759Z,29.89
2023-06-04T11:45:56.573Z,29.22
2023-06-04T11:48:23.770Z,29.15
2023-06-04T11:50:50.753Z,29.62
2023-06-04T11:53:17.677Z,30.02
2023-06-04T11:55:44.450Z,30.59
2023-06-04T11:58:11.459Z,30.76
2023-06-04T12:00:39.157Z,30.50
2023-06-04T12:03:07.588Z,30.41
2023-06-04T12:05:34.748Z,30.85
2023-06-04T12:08:10.496Z,30.22
2023-06-04T12:10:44.896Z,30.03
2023-06-04T12:13:12.111Z,30.50
2023-06-04T12:15:38.985Z,30.24
2023-06-04T12:18:06.257Z,31.02
2023-06-04T12:20:38.356Z,31.86
2023-06-04T12:23:07.230Z,30.92
2023-06-04T12:25:35.242Z,31.16
2023-06-04T12:28:04.113Z,30.27
2023-06-04T12:30:39.085Z,31.65
2023-06-04T12:33:05.946Z,32.48
2023-06-04T12:35:34.276Z,32.35
2023-06-04T12:38:04.367Z,32.95
2023-06-04T12:40:31.605Z,31.75
2023-06-04T12:42:58.319Z,31.46
2023-06-04T12:45:25.061Z,32.22
2023-06-04T12:47:51.574Z,30.39
2023-06-04T12:50:22.166Z,31.49
2023-06-04T12:52:49.241Z,31.94
2023-06-04T12:55:16.123Z,31.79
2023-06-04T12:57:45.233Z,32.32
2023-06-04T13:00:12.223Z,31.38
2023-06-04T13:02:38.968Z,32.56
2023-06-04T13:05:05.675Z,32.00
2023-06-04T13:07:32.298Z,32.47
2023-06-04T13:09:58.756Z,31.44
2023-06-04T13:12:25.579Z,32.54
2023-06-04T13:14:52.134Z,31.91
2023-06-04T13:17:22.488Z,31.76
2023-06-04T13:19:50.800Z,32.27
2023-06-04T13:22:17.609Z,32.65
2023-06-04T13:24:44.099Z,33.63
2023-06-04T13:27:10.767Z,33.39
2023-06-04T13:29:37.432Z,33.93
2023-06-04T13:32:04.805Z,34.12
2023-06-04T13:34:33.245Z,33.63
2023-06-04T13:37:00.156Z,33.08
2023-06-04T13:39:26.873Z,33.46
2023-06-04T13:41:53.614Z,33.99
2023-06-04T13:44:26.936Z,34.69
2023-06-04T13:46:54.308Z,33.88
2023-06-04T13:49:21.620Z,34.45
2023-06-04T13:51:48.357Z,34.96
2023-06-04T13:54:14.822Z,34.76
2023-06-04T13:56:41.739Z,34.74
2023-06-04T13:59:08.246Z,34.74
2023-06-04T14:01:34.945Z,34.03
2023-06-04T14:04:01.842Z,33.88
2023-06-04T14:06:28.502Z,35.87
2023-06-04T14:08:55.249Z,35.55
2023-06-04T14:11:21.780Z,36.18
2023-06-04T14:13:48.651Z,35.27
2023-06-04T14:16:15.849Z,35.19
2023-06-04T14:18:42.604Z,35.81
2023-06-04T14:21:09.642Z,35.50
2023-06-04T14:23:36.429Z,36.52
2023-06-04T14:26:03.191Z,35.85
2023-06-04T14:28:29.725Z,35.65
2023-06-04T14:30:56.652Z,35.21
2023-06-04T14:33:23.105Z,36.25
2023-06-04T14:35:49.839Z,36.34
2023-06-04T14:38:17.472Z,33.53
2023-06-04T14:40:47.066Z,35.20
2023-06-04T14:43:13.997Z,36.09
2023-06-04T14:45:41.860Z,36.02
2023-06-04T14:48:15.309Z,36.76
2023-06-04T14:50:44.291Z,36.80
2023-06-04T14:53:12.674Z,37.03
2023-06-04T14:55:40.366Z,37.06
2023-06-04T14:58:07.060Z,36.67
2023-06-04T15:00:34.099Z,36.34
2023-06-04T15:03:04.400Z,36.96
2023-06-04T15:05:34.787Z,37.72
2023-06-04T15:08:04.531Z,36.99
2023-06-04T15:10:31.627Z,37.31
2023-06-04T15:12:58.179Z,36.53
2023-06-04T15:15:24.967Z,37.03
2023-06-04T15:17:51.705Z,37.17
2023-06-04T15:20:18.875Z,37.32
2023-06-04T15:22:45.513Z,37.74
2023-06-04T15:25:12.051Z,37.69
2023-06-04T15:27:39.524Z,36.59
2023-06-04T15:30:07.448Z,35.98
2023-06-04T15:32:35.120Z,36.96
2023-06-04T15:35:02.635Z,36.90
2023-06-04T15:37:29.179Z,37.12
2023-06-04T15:39:58.752Z,36.73
2023-06-04T15:42:25.705Z,37.56
2023-06-04T15:44:52.307Z,37.53
2023-06-04T15:47:18.914Z,37.72
2023-06-04T15:49:45.597Z,37.31
2023-06-04T15:52:12.563Z,37.06
2023-06-04T15:54:46.353Z,37.11
2023-06-04T15:57:14.295Z,36.90
2023-06-04T15:59:41.940Z,37.89
2023-06-04T16:02:08.871Z,37.50
2023-06-04T16:04:35.740Z,37.82
2023-06-04T16:07:03.070Z,37.52
2023-06-04T16:09:30.008Z,37.43
2023-06-04T16:11:56.813Z,37.79
2023-06-04T16:14:23.818Z,37.77
2023-06-04T16:16:50.458Z,37.51
2023-06-04T16:19:17.297Z,37.60
2023-06-04T16:21:43.915Z,37.60
2023-06-04T16:24:10.454Z,36.77
2023-06-04T16:26:37.174Z,37.44
2023-06-04T16:29:03.674Z,37.95
2023-06-04T16:31:30.506Z,37.31
2023-06-04T16:33:57.073Z,37.24
2023-06-04T16:36:23.846Z,37.13
2023-06-04T16:38:50.674Z,36.74
2023-06-04T16:41:17.148Z,37.09
2023-06-04T16:43:43.964Z,37.22
2023-06-04T16:46:10.505Z,36.65
2023-06-04T16:48:39.419Z,37.20
2023-06-04T16:51:06.428Z,37.29
2023-06-04T16:53:33.202Z,36.58
2023-06-04T16:55:59.966Z,37.27
2023-06-04T16:58:26.504Z,36.89
2023-06-04T17:00:53.315Z,36.84
2023-06-04T17:03:20.303Z,35.77
2023-06-04T17:05:47.409Z,36.65
2023-06-04T17:08:14.020Z,35.43
2023-06-04T17:10:40.900Z,35.57
2023-06-04T17:13:07.462Z,35.62
2023-06-04T17:15:34.322Z,35.40
2023-06-04T17:18:07.431Z,35.83
2023-06-04T17:20:34.112Z,35.33
2023-06-04T17:23:01.743Z,34.92
2023-06-04T17:25:29.435Z,34.26
2023-06-04T17:27:56.385Z,33.02
2023-06-04T17:30:25.868Z,32.59
2023-06-04T17:32:52.810Z,30.80
2023-06-04T17:35:19.413Z,31.68
2023-06-04T17:37:46.124Z,31.92
2023-06-04T17:40:13.165Z,31.80
2023-06-04T17:42:41.908Z,31.56
2023-06-04T17:45:10.992Z,31.04
2023-06-04T17:47:37.746Z,30.65
2023-06-04T17:50:07.769Z,30.17
2023-06-04T17:52:35.242Z,29.29
2023-06-04T17:55:02.127Z,29.41
2023-06-04T17:57:30.077Z,29.09
2023-06-04T17:59:57.288Z,29.34
2023-06-04T18:02:23.961Z,29.41
2023-06-04T18:04:53.818Z,28.79
2023-06-04T18:07:21.364Z,28.55
2023-06-04T18:09:48.397Z,28.76
2023-06-04T18:12:15.487Z,28.09
2023-06-04T18:14:43.551Z,28.26
2023-06-04T18:17:10.797Z,28.27
2023-06-04T18:19:37.484Z,28.10
2023-06-04T18:22:04.584Z,27.86
2023-06-04T18:24:31.037Z,27.70
2023-06-04T18:26:59.878Z,27.68
2023-06-04T18:29:26.870Z,27.88
2023-06-04T18:31:53.600Z,27.67
2023-06-04T18:34:23.048Z,27.67
2023-06-04T18:36:57.194Z,26.95
2023-06-04T18:39:24.973Z,27.20
2023-06-04T18:41:56.283Z,27.37
2023-06-04T18:44:23.801Z,27.39
2023-06-04T18:46:51.185Z,27.18
2023-06-04T18:49:18.586Z,27.00
2023-06-04T18:51:45.623Z,27.12
2023-06-04T18:54:12.162Z,27.12
2023-06-04T18:56:39.989Z,26.72
2023-06-04T18:59:06.710Z,26.53
2023-06-04T19:01:33.337Z,26.43
2023-06-04T19:04:00.184Z,26.36
2023-06-04T19:06:27.562Z,26.33
2023-06-04T19:08:54.115Z,26.18
2023-06-04T19:11:22.845Z,26.10
2023-06-04T19:13:49.540Z,26.10
2023-06-04T19:16:16.400Z,25.84
2023-06-04T19:18:43.005Z,25.75
2023-06-04T19:21:09.670Z,25.37
2023-06-04T19:23:36.924Z,25.14
2023-06-04T19:26:03.906Z,25.21
2023-06-04T19:28:30.498Z,25.13
2023-06-04T19:30:57.175Z,25.02
2023-06-04T19:33:24.026Z,24.69
2023-06-04T19:35:51.572Z,24.70
2023-06-04T19:38:18.496Z,24.32
2023-06-04T19:40:46.000Z,24.46
2023-06-04T19:43:12.483Z,24.25
2023-06-04T19:45:38.964Z,24.13
2023-06-04T19:48:05.735Z,24.02
2023-06-04T19:50:32.402Z,24.04
2023-06-04T19:52:58.962Z,23.57
2023-06-04T19:55:25.574Z,23.54
2023-06-04T19:57:52.192Z,23.56
2023-06-04T20:00:18.742Z,23.16
2023-06-04T20:02:45.491Z,23.54
2023-06-04T20:05:12.187Z,23.55
2023-06-04T20:07:38.713Z,22.92
2023-06-04T20:10:06.307Z,22.55
2023-06-04T20:12:32.884Z,22.02
2023-06-04T20:14:59.389Z,22.62
2023-06-04T20:17:26.313Z,22.10
2023-06-04T20:19:54.783Z,22.25
2023-06-04T20:22:21.676Z,22.13
2023-06-04T20:24:48.288Z,21.82
2023-06-04T20:27:18.019Z,21.66
2023-06-04T20:29:45.290Z,21.58
2023-06-04T20:32:11.821Z,21.63
2023-06-04T20:34:38.552Z,21.68
2023-06-04T20:37:05.207Z,21.18
2023-06-04T20:39:32.249Z,20.87
2023-06-04T20:41:58.898Z,20.95
2023-06-04T20:44:25.586Z,20.61
2023-06-04T20:46:52.346Z,20.83
2023-06-04T20:49:19.038Z,20.57
2023-06-04T20:51:45.772Z,20.19
2023-06-04T20:54:12.311Z,20.09
2023-06-04T20:56:38.784Z,20.17
2023-06-04T20:59:05.708Z,19.92
2023-06-04T21:01:32.295Z,19.75
2023-06-04T21:04:01.350Z,19.58
2023-06-04T21:06:28.233Z,19.78
2023-06-04T21:08:54.761Z,19.72
2023-06-04T21:11:21.289Z,19.63
2023-06-04T21:13:47.937Z,19.28
2023-06-04T21:16:14.457Z,19.39
2023-06-04T21:18:40.971Z,19.59
2023-06-04T21:21:07.898Z,19.22
2023-06-04T21:23:34.960Z,19.17
2023-06-04T21:26:01.488Z,19.02
2023-06-04T21:28:28.105Z,18.87
2023-06-04T21:30:55.003Z,18.85
2023-06-04T21:33:21.551Z,18.70
2023-06-04T21:35:48.326Z,18.68
2023-06-04T21:38:14.792Z,18.73
2023-06-04T21:40:41.392Z,18.79
2023-06-04T21:43:07.860Z,18.60
2023-06-04T21:45:34.921Z,18.56
2023-06-04T21:48:01.966Z,18.46
2023-06-04T21:50:28.588Z,18.44
2023-06-04T21:52:55.664Z,18.24
2023-06-04T21:55:22.415Z,18.32
2023-06-04T21:57:48.952Z,18.39
2023-06-04T22:00:16.677Z,18.21
2023-06-04T22:02:43.722Z,18.20
2023-06-04T22:05:10.452Z,18.25
2023-06-04T22:07:37.025Z,18.13
2023-06-04T22:10:04.113Z,18.17
2023-06-04T22:12:30.835Z,18.13
2023-06-04T22:14:57.384Z,17.98
2023-06-04T22:17:23.930Z,18.03
2023-06-04T22:19:51.577Z,18.11
2023-06-04T22:22:18.188Z,18.08
2023-06-04T22:24:44.794Z,18.01
2023-06-04T22:27:11.508Z,18.00
2023-06-04T22:29:38.032Z,18.08
2023-06-04T22:32:04.722Z,18.13
2023-06-04T22:34:31.492Z,18.06
2023-06-04T22:36:58.002Z,18.07
2023-06-04T22:39:24.543Z,18.13
2023-06-04T22:41:51.092Z,18.13
2023-06-04T22:44:17.822Z,18.13
2023-06-04T22:46:44.488Z,18.15
2023-06-04T22:49:12.145Z,18.23
2023-06-04T22:51:39.642Z,18.20
2023-06-04T22:54:06.261Z,18.22
2023-06-04T22:56:32.789Z,18.33
2023-06-04T22:58:59.302Z,18.22
2023-06-04T23:01:26.480Z,18.30
2023-06-04T23:03:53.468Z,18.33
2023-06-04T23:06:20.091Z,18.31
2023-06-04T23:08:46.710Z,18.42
2023-06-04T23:11:13.335Z,18.38
2023-06-04T23:13:39.824Z,18.35
2023-06-04T23:16:06.620Z,18.39
2023-06-04T23:18:33.660Z,18.38
2023-06-04T23:21:00.532Z,18.47
2023-06-04T23:23:27.333Z,18.43
2023-06-04T23:25:54.007Z,18.51
2023-06-04T23:28:20.667Z,18.50
2023-06-04T23:30:47.319Z,18.43
2023-06-04T23:33:13.970Z,18.41
2023-06-04T23:35:40.656Z,18.47
2023-06-04T23:38:07.222Z,18.49
2023-06-04T23:40:33.962Z,18.39
2023-06-04T23:43:00.572Z,18.41
2023-06-04T23:45:27.435Z,18.39
2023-06-04T23:47:53.938Z,18.38
2023-06-04T23:50:20.480Z,18.42
2023-06-04T23:52:47.088Z,18.34
2023-06-04T23:55:13.594Z,18.34
2023-06-04T23:57:40.644Z,18.36
